sensor_id;sensor_type;location;lat;lon;timestamp;P1;durP1;ratioP1;P2;durP2;ratioP2
57565;SDS011;63999;43.882;-0.310;2023-06-14T00:02:15;7.32;;;2.72;;
57565;SDS011;63999;43.882;-0.310;2023-06-14T00:04:43;5.55;;;2.60;;
57565;SDS011;63999;43.882;-0.310;2023-06-14T00:07:12;7.18;;;2.63;;
57565;SDS011;63999;43.882;-0.310;2023-06-14T00:09:38;9.82;;;2.83;;
57565;SDS011;63999;43.882;-0.310;2023-06-14T00:12:08;10.57;;;2.58;;
57565;SDS011;63999;43.882;-0.310;2023-06-14T00:14:34;6.00;;;2.75;;
57565;SDS011;63999;43.882;-0.310;2023-06-14T00:17:00;4.20;;;2.60;;
57565;SDS011;63999;43.882;-0.310;2023-06-14T00:19:28;3.22;;;2.42;;
57565;SDS011;63999;43.882;-0.310;2023-06-14T00:22:00;5.00;;;2.63;;
57565;SDS011;63999;43.882;-0.310;2023-06-14T00:24:29;5.65;;;2.90;;
57565;SDS011;63999;43.882;-0.310;2023-06-14T00:26:58;6.43;;;2.78;;
57565;SDS011;63999;43.882;-0.310;2023-06-14T00:29:24;4.78;;;2.70;;
57565;SDS011;63999;43.882;-0.310;2023-06-14T00:31:50;5.75;;;2.80;;
57565;SDS011;63999;43.882;-0.310;2023-06-14T00:34:16;5.05;;;2.63;;
57565;SDS011;63999;43.882;-0.310;2023-06-14T00:36:42;4.97;;;2.67;;
57565;SDS011;63999;43.882;-0.310;2023-06-14T00:39:07;3.75;;;2.88;;
57565;SDS011;63999;43.882;-0.310;2023-06-14T00:41:34;6.05;;;3.03;;
57565;SDS011;63999;43.882;-0.310;2023-06-14T00:44:00;6.28;;;3.13;;
57565;SDS011;63999;43.882;-0.310;2023-06-14T00:46:26;9.25;;;3.30;;
57565;SDS011;63999;43.882;-0.310;2023-06-14T00:48:52;4.93;;;3.22;;
57565;SDS011;63999;43.882;-0.310;2023-06-14T00:51:18;6.82;;;3.13;;
57565;SDS011;63999;43.882;-0.310;2023-06-14T00:53:47;5.45;;;3.40;;
57565;SDS011;63999;43.882;-0.310;2023-06-14T00:56:16;7.57;;;3.08;;
57565;SDS011;63999;43.882;-0.310;2023-06-14T00:58:45;6.68;;;3.00;;
57565;SDS011;63999;43.882;-0.310;2023-06-14T01:01:18;9.82;;;3.53;;
57565;SDS011;63999;43.882;-0.310;2023-06-14T01:03:44;6.55;;;3.33;;
57565;SDS011;63999;43.882;-0.310;2023-06-14T01:09:37;4.90;;;3.10;;
57565;SDS011;63999;43.882;-0.310;2023-06-14T01:12:00;7.05;;;3.40;;
57565;SDS011;63999;43.882;-0.310;2023-06-14T01:14:39;5.53;;;3.08;;
57565;SDS011;63999;43.882;-0.310;2023-06-14T01:17:07;7.05;;;3.40;;
57565;SDS011;63999;43.882;-0.310;2023-06-14T01:19:41;5.60;;;3.33;;
57565;SDS011;63999;43.882;-0.310;2023-06-14T01:22:07;5.43;;;3.13;;
57565;SDS011;63999;43.882;-0.310;2023-06-14T01:24:34;5.38;;;3.55;;
57565;SDS011;63999;43.882;-0.310;2023-06-14T01:27:02;10.15;;;3.53;;
57565;SDS011;63999;43.882;-0.310;2023-06-14T01:29:28;5.18;;;3.40;;
57565;SDS011;63999;43.882;-0.310;2023-06-14T01:31:58;6.13;;;3.45;;
57565;SDS011;63999;43.882;-0.310;2023-06-14T01:34:25;8.45;;;3.40;;
57565;SDS011;63999;43.882;-0.310;2023-06-14T01:36:52;6.10;;;3.58;;
57565;SDS011;63999;43.882;-0.310;2023-06-14T01:39:25;6.75;;;3.80;;
57565;SDS011;63999;43.882;-0.310;2023-06-14T01:41:51;7.03;;;3.78;;
57565;SDS011;63999;43.882;-0.310;2023-06-14T01:44:17;6.45;;;4.53;;
57565;SDS011;63999;43.882;-0.310;2023-06-14T01:46:45;8.23;;;5.35;;
57565;SDS011;63999;43.882;-0.310;2023-06-14T01:49:11;12.13;;;5.68;;
57565;SDS011;63999;43.882;-0.310;2023-06-14T01:51:37;7.32;;;4.72;;
57565;SDS011;63999;43.882;-0.310;2023-06-14T01:54:02;8.77;;;5.95;;
57565;SDS011;63999;43.882;-0.310;2023-06-14T01:56:32;9.68;;;6.78;;
57565;SDS011;63999;43.882;-0.310;2023-06-14T01:58:57;10.52;;;6.97;;
57565;SDS011;63999;43.882;-0.310;2023-06-14T02:01:23;11.95;;;8.68;;
57565;SDS011;63999;43.882;-0.310;2023-06-14T02:03:49;12.82;;;8.20;;
57565;SDS011;63999;43.882;-0.310;2023-06-14T02:06:16;9.18;;;6.63;;
57565;SDS011;63999;43.882;-0.310;2023-06-14T02:08:42;12.68;;;8.73;;
57565;SDS011;63999;43.882;-0.310;2023-06-14T02:11:08;10.38;;;8.13;;
57565;SDS011;63999;43.882;-0.310;2023-06-14T02:13:34;15.32;;;9.23;;
57565;SDS011;63999;43.882;-0.310;2023-06-14T02:16:00;15.02;;;10.48;;
57565;SDS011;63999;43.882;-0.310;2023-06-14T02:18:26;13.90;;;9.77;;
57565;SDS011;63999;43.882;-0.310;2023-06-14T02:20:55;9.30;;;7.03;;
57565;SDS011;63999;43.882;-0.310;2023-06-14T02:23:24;10.65;;;7.78;;
57565;SDS011;63999;43.882;-0.310;2023-06-14T02:25:53;14.05;;;9.38;;
57565;SDS011;63999;43.882;-0.310;2023-06-14T02:28:21;11.73;;;8.82;;
57565;SDS011;63999;43.882;-0.310;2023-06-14T02:30:46;12.20;;;9.00;;
57565;SDS011;63999;43.882;-0.310;2023-06-14T02:33:12;12.00;;;8.60;;
57565;SDS011;63999;43.882;-0.310;2023-06-14T02:35:38;14.52;;;9.25;;
57565;SDS011;63999;43.882;-0.310;2023-06-14T02:38:04;14.75;;;8.80;;
57565;SDS011;63999;43.882;-0.310;2023-06-14T02:40:32;13.40;;;9.55;;
57565;SDS011;63999;43.882;-0.310;2023-06-14T02:43:01;27.58;;;9.52;;
57565;SDS011;63999;43.882;-0.310;2023-06-14T02:45:27;16.45;;;8.20;;
57565;SDS011;63999;43.882;-0.310;2023-06-14T02:47:53;15.00;;;8.52;;
57565;SDS011;63999;43.882;-0.310;2023-06-14T02:50:22;12.10;;;8.95;;
57565;SDS011;63999;43.882;-0.310;2023-06-14T02:52:48;14.05;;;8.13;;
57565;SDS011;63999;43.882;-0.310;2023-06-14T02:55:17;13.45;;;8.02;;
57565;SDS011;63999;43.882;-0.310;2023-06-14T02:57:43;13.30;;;7.88;;
57565;SDS011;63999;43.882;-0.310;2023-06-14T03:00:13;11.13;;;8.10;;
57565;SDS011;63999;43.882;-0.310;2023-06-14T03:02:42;15.60;;;8.30;;
57565;SDS011;63999;43.882;-0.310;2023-06-14T03:05:08;13.48;;;8.40;;
57565;SDS011;63999;43.882;-0.310;2023-06-14T03:07:34;13.73;;;8.57;;
57565;SDS011;63999;43.882;-0.310;2023-06-14T03:10:06;16.37;;;7.77;;
57565;SDS011;63999;43.882;-0.310;2023-06-14T03:12:34;16.73;;;8.57;;
57565;SDS011;63999;43.882;-0.310;2023-06-14T03:15:01;13.93;;;8.05;;
57565;SDS011;63999;43.882;-0.310;2023-06-14T03:17:27;14.82;;;8.73;;
57565;SDS011;63999;43.882;-0.310;2023-06-14T03:20:01;11.70;;;8.48;;
57565;SDS011;63999;43.882;-0.310;2023-06-14T03:22:27;13.50;;;8.40;;
57565;SDS011;63999;43.882;-0.310;2023-06-14T03:24:53;12.60;;;8.50;;
57565;SDS011;63999;43.882;-0.310;2023-06-14T03:27:22;15.77;;;8.15;;
57565;SDS011;63999;43.882;-0.310;2023-06-14T03:30:07;16.42;;;8.13;;
57565;SDS011;63999;43.882;-0.310;2023-06-14T03:32:36;18.55;;;8.02;;
57565;SDS011;63999;43.882;-0.310;2023-06-14T03:35:05;11.15;;;7.53;;
57565;SDS011;63999;43.882;-0.310;2023-06-14T03:37:31;12.05;;;7.72;;
57565;SDS011;63999;43.882;-0.310;2023-06-14T03:40:00;13.98;;;7.38;;
57565;SDS011;63999;43.882;-0.310;2023-06-14T03:42:29;10.60;;;7.53;;
57565;SDS011;63999;43.882;-0.310;2023-06-14T03:44:58;12.45;;;8.00;;
57565;SDS011;63999;43.882;-0.310;2023-06-14T03:47:24;13.45;;;7.68;;
57565;SDS011;63999;43.882;-0.310;2023-06-14T03:49:50;16.40;;;8.02;;
57565;SDS011;63999;43.882;-0.310;2023-06-14T03:52:18;10.07;;;7.40;;
57565;SDS011;63999;43.882;-0.310;2023-06-14T03:54:47;13.10;;;7.50;;
57565;SDS011;63999;43.882;-0.310;2023-06-14T03:57:15;11.57;;;7.03;;
57565;SDS011;63999;43.882;-0.310;2023-06-14T03:59:41;13.65;;;7.45;;
57565;SDS011;63999;43.882;-0.310;2023-06-14T04:02:07;11.93;;;7.30;;
57565;SDS011;63999;43.882;-0.310;2023-06-14T04:04:37;12.75;;;7.28;;
57565;SDS011;63999;43.882;-0.310;2023-06-14T04:07:03;10.80;;;6.70;;
57565;SDS011;63999;43.882;-0.310;2023-06-14T04:09:29;12.73;;;6.97;;
57565;SDS011;63999;43.882;-0.310;2023-06-14T04:11:55;12.55;;;6.90;;
57565;SDS011;63999;43.882;-0.310;2023-06-14T04:14:21;15.43;;;7.20;;
57565;SDS011;63999;43.882;-0.310;2023-06-14T04:16:47;15.23;;;7.82;;
57565;SDS011;63999;43.882;-0.310;2023-06-14T04:19:15;13.27;;;7.93;;
57565;SDS011;63999;43.882;-0.310;2023-06-14T04:21:41;15.23;;;7.35;;
57565;SDS011;63999;43.882;-0.310;2023-06-14T04:24:07;12.05;;;7.85;;
57565;SDS011;63999;43.882;-0.310;2023-06-14T04:26:41;10.93;;;7.07;;
57565;SDS011;63999;43.882;-0.310;2023-06-14T04:29:13;15.18;;;7.30;;
57565;SDS011;63999;43.882;-0.310;2023-06-14T04:31:42;15.48;;;7.68;;
57565;SDS011;63999;43.882;-0.310;2023-06-14T04:34:09;12.25;;;7.28;;
57565;SDS011;63999;43.882;-0.310;2023-06-14T04:36:41;16.88;;;7.63;;
57565;SDS011;63999;43.882;-0.310;2023-06-14T04:39:21;11.80;;;6.57;;
57565;SDS011;63999;43.882;-0.310;2023-06-14T04:41:48;10.40;;;6.63;;
57565;SDS011;63999;43.882;-0.310;2023-06-14T04:44:18;12.88;;;7.60;;
57565;SDS011;63999;43.882;-0.310;2023-06-14T04:46:45;13.05;;;6.95;;
57565;SDS011;63999;43.882;-0.310;2023-06-14T04:49:14;15.43;;;6.82;;
57565;SDS011;63999;43.882;-0.310;2023-06-14T04:51:42;13.30;;;6.95;;
57565;SDS011;63999;43.882;-0.310;2023-06-14T04:54:14;11.45;;;5.70;;
57565;SDS011;63999;43.882;-0.310;2023-06-14T04:56:43;12.60;;;6.22;;
57565;SDS011;63999;43.882;-0.310;2023-06-14T04:59:11;10.15;;;6.25;;
57565;SDS011;63999;43.882;-0.310;2023-06-14T05:01:37;12.80;;;6.50;;
57565;SDS011;63999;43.882;-0.310;2023-06-14T05:04:03;12.68;;;6.45;;
57565;SDS011;63999;43.882;-0.310;2023-06-14T05:06:32;12.55;;;6.18;;
57565;SDS011;63999;43.882;-0.310;2023-06-14T05:08:58;13.60;;;6.40;;
57565;SDS011;63999;43.882;-0.310;2023-06-14T05:11:23;11.38;;;6.25;;
57565;SDS011;63999;43.882;-0.310;2023-06-14T05:13:49;9.88;;;6.13;;
57565;SDS011;63999;43.882;-0.310;2023-06-14T05:16:16;13.15;;;5.95;;
57565;SDS011;63999;43.882;-0.310;2023-06-14T05:18:45;10.13;;;6.53;;
57565;SDS011;63999;43.882;-0.310;2023-06-14T05:21:12;13.95;;;6.03;;
57565;SDS011;63999;43.882;-0.310;2023-06-14T05:23:42;14.07;;;6.60;;
57565;SDS011;63999;43.882;-0.310;2023-06-14T05:26:09;11.60;;;5.80;;
57565;SDS011;63999;43.882;-0.310;2023-06-14T05:28:35;13.82;;;6.15;;
57565;SDS011;63999;43.882;-0.310;2023-06-14T05:31:01;14.60;;;5.80;;
57565;SDS011;63999;43.882;-0.310;2023-06-14T05:33:27;11.60;;;6.10;;
57565;SDS011;63999;43.882;-0.310;2023-06-14T05:35:53;18.92;;;6.10;;
57565;SDS011;63999;43.882;-0.310;2023-06-14T05:38:22;13.20;;;5.93;;
57565;SDS011;63999;43.882;-0.310;2023-06-14T05:40:48;14.77;;;5.90;;
57565;SDS011;63999;43.882;-0.310;2023-06-14T05:43:14;14.75;;;6.20;;
57565;SDS011;63999;43.882;-0.310;2023-06-14T05:45:40;14.57;;;6.15;;
57565;SDS011;63999;43.882;-0.310;2023-06-14T05:48:08;14.05;;;6.07;;
57565;SDS011;63999;43.882;-0.310;2023-06-14T05:50:34;12.30;;;5.95;;
57565;SDS011;63999;43.882;-0.310;2023-06-14T05:53:02;14.27;;;5.65;;
57565;SDS011;63999;43.882;-0.310;2023-06-14T05:55:36;12.43;;;5.35;;
57565;SDS011;63999;43.882;-0.310;2023-06-14T05:58:05;14.15;;;6.05;;
57565;SDS011;63999;43.882;-0.310;2023-06-14T06:00:31;11.70;;;5.70;;
57565;SDS011;63999;43.882;-0.310;2023-06-14T06:02:57;11.55;;;5.68;;
57565;SDS011;63999;43.882;-0.310;2023-06-14T06:05:23;11.02;;;5.78;;
57565;SDS011;63999;43.882;-0.310;2023-06-14T06:07:49;13.82;;;5.97;;
57565;SDS011;63999;43.882;-0.310;2023-06-14T06:10:15;12.20;;;5.70;;
57565;SDS011;63999;43.882;-0.310;2023-06-14T06:12:42;12.50;;;5.75;;
57565;SDS011;63999;43.882;-0.310;2023-06-14T06:18:32;14.50;;;6.47;;
57565;SDS011;63999;43.882;-0.310;2023-06-14T06:20:59;13.02;;;6.18;;
57565;SDS011;63999;43.882;-0.310;2023-06-14T06:23:28;12.30;;;5.32;;
57565;SDS011;63999;43.882;-0.310;2023-06-14T06:25:54;14.90;;;6.18;;
57565;SDS011;63999;43.882;-0.310;2023-06-14T06:28:23;13.30;;;5.65;;
57565;SDS011;63999;43.882;-0.310;2023-06-14T06:30:49;11.95;;;5.78;;
57565;SDS011;63999;43.882;-0.310;2023-06-14T06:33:18;10.57;;;5.38;;
57565;SDS011;63999;43.882;-0.310;2023-06-14T06:35:44;14.20;;;6.38;;
57565;SDS011;63999;43.882;-0.310;2023-06-14T06:38:13;9.45;;;6.00;;
57565;SDS011;63999;43.882;-0.310;2023-06-14T06:40:43;12.63;;;5.65;;
57565;SDS011;63999;43.882;-0.310;2023-06-14T06:43:12;14.57;;;5.93;;
57565;SDS011;63999;43.882;-0.310;2023-06-14T06:45:44;11.77;;;6.43;;
57565;SDS011;63999;43.882;-0.310;2023-06-14T06:48:10;13.80;;;6.78;;
57565;SDS011;63999;43.882;-0.310;2023-06-14T06:50:36;12.13;;;6.60;;
57565;SDS011;63999;43.882;-0.310;2023-06-14T06:53:02;11.30;;;6.68;;
57565;SDS011;63999;43.882;-0.310;2023-06-14T06:55:28;16.83;;;6.90;;
57565;SDS011;63999;43.882;-0.310;2023-06-14T06:57:56;18.52;;;6.88;;
57565;SDS011;63999;43.882;-0.310;2023-06-14T07:00:22;22.58;;;6.68;;
57565;SDS011;63999;43.882;-0.310;2023-06-14T07:02:48;10.48;;;6.13;;
57565;SDS011;63999;43.882;-0.310;2023-06-14T07:05:14;16.65;;;7.07;;
57565;SDS011;63999;43.882;-0.310;2023-06-14T07:07:42;15.35;;;6.90;;
57565;SDS011;63999;43.882;-0.310;2023-06-14T07:10:08;14.88;;;6.95;;
57565;SDS011;63999;43.882;-0.310;2023-06-14T07:12:35;14.75;;;6.90;;
57565;SDS011;63999;43.882;-0.310;2023-06-14T07:15:04;11.52;;;6.40;;
57565;SDS011;63999;43.882;-0.310;2023-06-14T07:17:32;16.58;;;8.23;;
57565;SDS011;63999;43.882;-0.310;2023-06-14T07:19:58;10.75;;;6.40;;
57565;SDS011;63999;43.882;-0.310;2023-06-14T07:22:37;12.35;;;7.07;;
57565;SDS011;63999;43.882;-0.310;2023-06-14T07:25:05;11.50;;;6.78;;
57565;SDS011;63999;43.882;-0.310;2023-06-14T07:27:35;15.20;;;7.53;;
57565;SDS011;63999;43.882;-0.310;2023-06-14T07:30:01;17.10;;;7.40;;
57565;SDS011;63999;43.882;-0.310;2023-06-14T07:32:27;11.25;;;7.20;;
57565;SDS011;63999;43.882;-0.310;2023-06-14T07:34:56;10.48;;;6.72;;
57565;SDS011;63999;43.882;-0.310;2023-06-14T07:37:21;14.45;;;7.20;;
57565;SDS011;63999;43.882;-0.310;2023-06-14T07:39:47;13.23;;;7.85;;
57565;SDS011;63999;43.882;-0.310;2023-06-14T07:42:13;14.48;;;7.63;;
57565;SDS011;63999;43.882;-0.310;2023-06-14T07:44:39;16.20;;;8.70;;
57565;SDS011;63999;43.882;-0.310;2023-06-14T07:47:05;19.08;;;7.57;;
57565;SDS011;63999;43.882;-0.310;2023-06-14T07:49:31;14.77;;;7.32;;
57565;SDS011;63999;43.882;-0.310;2023-06-14T07:51:57;11.05;;;7.72;;
57565;SDS011;63999;43.882;-0.310;2023-06-14T07:54:23;14.57;;;8.15;;
57565;SDS011;63999;43.882;-0.310;2023-06-14T07:56:51;14.75;;;8.13;;
57565;SDS011;63999;43.882;-0.310;2023-06-14T07:59:17;16.58;;;7.75;;
57565;SDS011;63999;43.882;-0.310;2023-06-14T08:01:48;13.32;;;7.90;;
57565;SDS011;63999;43.882;-0.310;2023-06-14T08:04:17;12.65;;;8.02;;
57565;SDS011;63999;43.882;-0.310;2023-06-14T08:06:45;13.65;;;8.50;;
57565;SDS011;63999;43.882;-0.310;2023-06-14T08:09:11;16.10;;;8.43;;
57565;SDS011;63999;43.882;-0.310;2023-06-14T08:11:38;13.20;;;8.18;;
57565;SDS011;63999;43.882;-0.310;2023-06-14T08:14:04;15.82;;;8.48;;
57565;SDS011;63999;43.882;-0.310;2023-06-14T08:16:30;13.73;;;7.82;;
57565;SDS011;63999;43.882;-0.310;2023-06-14T08:18:55;15.38;;;7.90;;
57565;SDS011;63999;43.882;-0.310;2023-06-14T08:21:21;13.50;;;8.63;;
57565;SDS011;63999;43.882;-0.310;2023-06-14T08:23:47;15.13;;;8.70;;
57565;SDS011;63999;43.882;-0.310;2023-06-14T08:26:13;14.20;;;8.68;;
57565;SDS011;63999;43.882;-0.310;2023-06-14T08:28:39;10.40;;;7.70;;
57565;SDS011;63999;43.882;-0.310;2023-06-14T08:31:05;14.80;;;8.80;;
57565;SDS011;63999;43.882;-0.310;2023-06-14T08:33:31;13.90;;;8.27;;
57565;SDS011;63999;43.882;-0.310;2023-06-14T08:35:59;14.05;;;8.30;;
57565;SDS011;63999;43.882;-0.310;2023-06-14T08:38:25;13.65;;;8.82;;
57565;SDS011;63999;43.882;-0.310;2023-06-14T08:40:51;13.02;;;8.52;;
57565;SDS011;63999;43.882;-0.310;2023-06-14T08:43:22;16.88;;;9.75;;
57565;SDS011;63999;43.882;-0.310;2023-06-14T08:45:48;15.52;;;9.60;;
57565;SDS011;63999;43.882;-0.310;2023-06-14T08:48:19;15.95;;;10.15;;
57565;SDS011;63999;43.882;-0.310;2023-06-14T08:50:47;14.77;;;8.75;;
57565;SDS011;63999;43.882;-0.310;2023-06-14T08:53:13;20.17;;;10.80;;
57565;SDS011;63999;43.882;-0.310;2023-06-14T08:55:45;12.77;;;8.98;;
57565;SDS011;63999;43.882;-0.310;2023-06-14T08:58:12;14.02;;;9.23;;
57565;SDS011;63999;43.882;-0.310;2023-06-14T09:00:42;10.38;;;7.95;;
57565;SDS011;63999;43.882;-0.310;2023-06-14T09:03:11;11.77;;;8.75;;
57565;SDS011;63999;43.882;-0.310;2023-06-14T09:05:40;13.52;;;9.07;;
57565;SDS011;63999;43.882;-0.310;2023-06-14T09:08:09;11.38;;;7.97;;
57565;SDS011;63999;43.882;-0.310;2023-06-14T09:10:40;15.48;;;8.63;;
57565;SDS011;63999;43.882;-0.310;2023-06-14T09:13:06;12.07;;;8.13;;
57565;SDS011;63999;43.882;-0.310;2023-06-14T09:15:33;15.10;;;9.05;;
57565;SDS011;63999;43.882;-0.310;2023-06-14T09:18:03;12.65;;;8.52;;
57565;SDS011;63999;43.882;-0.310;2023-06-14T09:20:29;12.35;;;9.15;;
57565;SDS011;63999;43.882;-0.310;2023-06-14T09:22:55;18.60;;;10.15;;
57565;SDS011;63999;43.882;-0.310;2023-06-14T09:25:22;13.35;;;9.60;;
57565;SDS011;63999;43.882;-0.310;2023-06-14T09:27:51;18.67;;;10.30;;
57565;SDS011;63999;43.882;-0.310;2023-06-14T09:30:19;14.70;;;9.40;;
57565;SDS011;63999;43.882;-0.310;2023-06-14T09:32:45;15.93;;;9.75;;
57565;SDS011;63999;43.882;-0.310;2023-06-14T09:35:11;15.13;;;9.35;;
57565;SDS011;63999;43.882;-0.310;2023-06-14T09:37:45;13.95;;;9.55;;
57565;SDS011;63999;43.882;-0.310;2023-06-14T09:40:12;14.52;;;9.60;;
57565;SDS011;63999;43.882;-0.310;2023-06-14T09:42:38;13.57;;;9.63;;
57565;SDS011;63999;43.882;-0.310;2023-06-14T09:45:05;15.15;;;10.30;;
57565;SDS011;63999;43.882;-0.310;2023-06-14T09:47:31;16.67;;;10.32;;
57565;SDS011;63999;43.882;-0.310;2023-06-14T09:49:59;11.40;;;8.88;;
57565;SDS011;63999;43.882;-0.310;2023-06-14T09:52:25;11.98;;;9.57;;
57565;SDS011;63999;43.882;-0.310;2023-06-14T09:54:53;18.23;;;11.30;;
57565;SDS011;63999;43.882;-0.310;2023-06-14T09:57:21;14.63;;;9.30;;
57565;SDS011;63999;43.882;-0.310;2023-06-14T09:59:48;13.05;;;9.93;;
57565;SDS011;63999;43.882;-0.310;2023-06-14T10:04:47;15.82;;;11.25;;
57565;SDS011;63999;43.882;-0.310;2023-06-14T10:07:25;13.23;;;9.70;;
57565;SDS011;63999;43.882;-0.310;2023-06-14T10:09:53;17.58;;;10.65;;
57565;SDS011;63999;43.882;-0.310;2023-06-14T10:12:19;13.30;;;10.50;;
57565;SDS011;63999;43.882;-0.310;2023-06-14T10:14:48;15.80;;;9.75;;
57565;SDS011;63999;43.882;-0.310;2023-06-14T10:17:21;14.45;;;9.93;;
57565;SDS011;63999;43.882;-0.310;2023-06-14T10:20:19;14.50;;;11.00;;
57565;SDS011;63999;43.882;-0.310;2023-06-14T10:22:56;14.40;;;10.40;;
57565;SDS011;63999;43.882;-0.310;2023-06-14T10:25:32;15.52;;;10.82;;
57565;SDS011;63999;43.882;-0.310;2023-06-14T10:28:14;15.48;;;11.07;;
57565;SDS011;63999;43.882;-0.310;2023-06-14T10:31:09;15.88;;;11.20;;
57565;SDS011;63999;43.882;-0.310;2023-06-14T10:33:39;15.38;;;10.60;;
57565;SDS011;63999;43.882;-0.310;2023-06-14T10:39:07;14.65;;;11.65;;
57565;SDS011;63999;43.882;-0.310;2023-06-14T10:41:37;15.77;;;11.00;;
57565;SDS011;63999;43.882;-0.310;2023-06-14T10:47:00;14.77;;;10.88;;
57565;SDS011;63999;43.882;-0.310;2023-06-14T10:49:39;15.73;;;12.18;;
57565;SDS011;63999;43.882;-0.310;2023-06-14T10:52:15;14.63;;;11.10;;
57565;SDS011;63999;43.882;-0.310;2023-06-14T10:55:03;14.60;;;11.50;;
57565;SDS011;63999;43.882;-0.310;2023-06-14T10:57:42;19.33;;;11.48;;
57565;SDS011;63999;43.882;-0.310;2023-06-14T11:00:15;21.55;;;11.38;;
57565;SDS011;63999;43.882;-0.310;2023-06-14T11:02:51;18.90;;;11.63;;
57565;SDS011;63999;43.882;-0.310;2023-06-14T11:05:24;16.73;;;12.30;;
57565;SDS011;63999;43.882;-0.310;2023-06-14T11:10:34;15.55;;;11.45;;
57565;SDS011;63999;43.882;-0.310;2023-06-14T11:13:02;15.82;;;11.38;;
57565;SDS011;63999;43.882;-0.310;2023-06-14T11:15:35;18.05;;;11.90;;
57565;SDS011;63999;43.882;-0.310;2023-06-14T11:18:05;16.40;;;11.50;;
57565;SDS011;63999;43.882;-0.310;2023-06-14T11:20:32;16.25;;;11.50;;
57565;SDS011;63999;43.882;-0.310;2023-06-14T11:23:00;17.15;;;11.20;;
57565;SDS011;63999;43.882;-0.310;2023-06-14T11:25:27;16.80;;;11.32;;
57565;SDS011;63999;43.882;-0.310;2023-06-14T11:27:53;17.73;;;11.05;;
57565;SDS011;63999;43.882;-0.310;2023-06-14T11:30:22;14.15;;;11.13;;
57565;SDS011;63999;43.882;-0.310;2023-06-14T11:32:49;13.85;;;10.88;;
57565;SDS011;63999;43.882;-0.310;2023-06-14T11:35:17;17.50;;;11.07;;
57565;SDS011;63999;43.882;-0.310;2023-06-14T11:37:56;15.20;;;11.43;;
57565;SDS011;63999;43.882;-0.310;2023-06-14T11:40:23;15.32;;;10.65;;
57565;SDS011;63999;43.882;-0.310;2023-06-14T11:43:02;19.38;;;11.88;;
57565;SDS011;63999;43.882;-0.310;2023-06-14T11:45:32;17.00;;;12.23;;
57565;SDS011;63999;43.882;-0.310;2023-06-14T11:48:17;18.33;;;12.10;;
57565;SDS011;63999;43.882;-0.310;2023-06-14T11:50:49;20.02;;;11.73;;
57565;SDS011;63999;43.882;-0.310;2023-06-14T11:53:17;20.50;;;12.10;;
57565;SDS011;63999;43.882;-0.310;2023-06-14T11:55:45;24.25;;;12.50;;
57565;SDS011;63999;43.882;-0.310;2023-06-14T11:58:12;23.08;;;11.60;;
57565;SDS011;63999;43.882;-0.310;2023-06-14T12:00:43;16.25;;;11.30;;
57565;SDS011;63999;43.882;-0.310;2023-06-14T12:03:09;16.50;;;11.57;;
57565;SDS011;63999;43.882;-0.310;2023-06-14T12:05:37;15.13;;;10.45;;
57565;SDS011;63999;43.882;-0.310;2023-06-14T12:08:03;21.73;;;11.95;;
57565;SDS011;63999;43.882;-0.310;2023-06-14T12:10:39;14.73;;;10.57;;
57565;SDS011;63999;43.882;-0.310;2023-06-14T12:13:16;15.98;;;11.15;;
57565;SDS011;63999;43.882;-0.310;2023-06-14T12:15:42;19.52;;;12.27;;
57565;SDS011;63999;43.882;-0.310;2023-06-14T12:18:19;16.13;;;10.57;;
57565;SDS011;63999;43.882;-0.310;2023-06-14T12:20:47;17.70;;;11.93;;
57565;SDS011;63999;43.882;-0.310;2023-06-14T12:23:15;17.17;;;11.55;;
57565;SDS011;63999;43.882;-0.310;2023-06-14T12:25:41;18.23;;;12.25;;
57565;SDS011;63999;43.882;-0.310;2023-06-14T12:28:09;19.73;;;12.27;;
57565;SDS011;63999;43.882;-0.310;2023-06-14T12:30:36;18.27;;;11.52;;
57565;SDS011;63999;43.882;-0.310;2023-06-14T12:33:05;15.43;;;11.93;;
57565;SDS011;63999;43.882;-0.310;2023-06-14T12:35:32;15.45;;;10.65;;
57565;SDS011;63999;43.882;-0.310;2023-06-14T12:38:04;16.00;;;11.98;;
57565;SDS011;63999;43.882;-0.310;2023-06-14T12:40:47;19.98;;;11.90;;
57565;SDS011;63999;43.882;-0.310;2023-06-14T12:43:15;17.17;;;12.02;;
57565;SDS011;63999;43.882;-0.310;2023-06-14T12:45:40;19.15;;;11.68;;
57565;SDS011;63999;43.882;-0.310;2023-06-14T12:48:12;21.08;;;11.63;;
57565;SDS011;63999;43.882;-0.310;2023-06-14T12:50:41;14.18;;;10.73;;
57565;SDS011;63999;43.882;-0.310;2023-06-14T12:53:12;20.55;;;11.32;;
57565;SDS011;63999;43.882;-0.310;2023-06-14T12:55:39;17.55;;;11.68;;
57565;SDS011;63999;43.882;-0.310;2023-06-14T12:58:05;17.48;;;11.13;;
57565;SDS011;63999;43.882;-0.310;2023-06-14T13:00:35;14.57;;;10.88;;
57565;SDS011;63999;43.882;-0.310;2023-06-14T13:03:11;18.38;;;11.00;;
57565;SDS011;63999;43.882;-0.310;2023-06-14T13:05:44;14.75;;;10.48;;
57565;SDS011;63999;43.882;-0.310;2023-06-14T13:08:18;15.43;;;10.57;;
57565;SDS011;63999;43.882;-0.310;2023-06-14T13:10:53;16.48;;;10.45;;
57565;SDS011;63999;43.882;-0.310;2023-06-14T13:13:19;19.73;;;11.75;;
57565;SDS011;63999;43.882;-0.310;2023-06-14T13:15:45;14.25;;;10.77;;
57565;SDS011;63999;43.882;-0.310;2023-06-14T13:18:18;14.48;;;11.27;;
57565;SDS011;63999;43.882;-0.310;2023-06-14T13:20:45;13.88;;;10.13;;
57565;SDS011;63999;43.882;-0.310;2023-06-14T13:23:11;18.17;;;11.85;;
57565;SDS011;63999;43.882;-0.310;2023-06-14T13:25:40;13.30;;;9.80;;
57565;SDS011;63999;43.882;-0.310;2023-06-14T13:28:12;19.02;;;11.57;;
57565;SDS011;63999;43.882;-0.310;2023-06-14T13:30:45;16.30;;;11.27;;
57565;SDS011;63999;43.882;-0.310;2023-06-14T13:36:53;22.92;;;11.50;;
57565;SDS011;63999;43.882;-0.310;2023-06-14T13:39:23;18.88;;;11.07;;
57565;SDS011;63999;43.882;-0.310;2023-06-14T13:41:54;19.13;;;10.93;;
57565;SDS011;63999;43.882;-0.310;2023-06-14T13:47:02;17.50;;;10.80;;
57565;SDS011;63999;43.882;-0.310;2023-06-14T13:49:28;19.98;;;9.93;;
57565;SDS011;63999;43.882;-0.310;2023-06-14T13:52:00;20.13;;;10.95;;
57565;SDS011;63999;43.882;-0.310;2023-06-14T13:54:27;12.93;;;10.07;;
57565;SDS011;63999;43.882;-0.310;2023-06-14T13:56:53;18.33;;;10.07;;
57565;SDS011;63999;43.882;-0.310;2023-06-14T13:59:22;13.38;;;9.52;;
57565;SDS011;63999;43.882;-0.310;2023-06-14T14:01:49;13.23;;;9.93;;
57565;SDS011;63999;43.882;-0.310;2023-06-14T14:04:21;17.52;;;10.95;;
57565;SDS011;63999;43.882;-0.310;2023-06-14T14:07:06;16.77;;;10.05;;
57565;SDS011;63999;43.882;-0.310;2023-06-14T14:09:36;12.85;;;9.50;;
57565;SDS011;63999;43.882;-0.310;2023-06-14T14:12:03;18.58;;;10.40;;
57565;SDS011;63999;43.882;-0.310;2023-06-14T14:14:34;15.13;;;10.05;;
57565;SDS011;63999;43.882;-0.310;2023-06-14T14:17:06;14.32;;;9.50;;
57565;SDS011;63999;43.882;-0.310;2023-06-14T14:19:33;14.18;;;10.13;;
57565;SDS011;63999;43.882;-0.310;2023-06-14T14:22:01;15.63;;;9.48;;
57565;SDS011;63999;43.882;-0.310;2023-06-14T14:24:33;13.90;;;9.40;;
57565;SDS011;63999;43.882;-0.310;2023-06-14T14:27:14;13.65;;;9.05;;
57565;SDS011;63999;43.882;-0.310;2023-06-14T14:29:44;13.15;;;8.35;;
57565;SDS011;63999;43.882;-0.310;2023-06-14T14:32:13;13.52;;;8.80;;
57565;SDS011;63999;43.882;-0.310;2023-06-14T14:34:41;12.55;;;8.50;;
57565;SDS011;63999;43.882;-0.310;2023-06-14T14:37:07;14.02;;;9.52;;
57565;SDS011;63999;43.882;-0.310;2023-06-14T14:39:33;13.20;;;9.13;;
57565;SDS011;63999;43.882;-0.310;2023-06-14T14:42:00;13.35;;;9.00;;
57565;SDS011;63999;43.882;-0.310;2023-06-14T14:44:29;13.55;;;8.65;;
57565;SDS011;63999;43.882;-0.310;2023-06-14T14:46:55;13.20;;;8.52;;
57565;SDS011;63999;43.882;-0.310;2023-06-14T14:49:22;11.77;;;8.73;;
57565;SDS011;63999;43.882;-0.310;2023-06-14T14:51:51;12.55;;;8.70;;
57565;SDS011;63999;43.882;-0.310;2023-06-14T14:54:22;14.43;;;8.77;;